Time;durP1;ratioP1;P1;durP2;ratioP2;P2;SDS_P1;SDS_P2;PMS_P1;PMS_P2;Temp;Humidity;BMP_temperature;BMP_pressure;BME280_temperature;BME280_humidity;BME280_pressure;Samples;Min_cycle;Max_cycle;Signal;HPM_P1;HPM_P2
2024/02/28 00:00:47;;;;;;;36.60;24.25;;;;;;;4.08;100.00;101912.59;5093262;28;20396;-69
2024/02/28 00:03:35;;;;;;;33.08;23.50;;;;;;;4.05;100.00;101903.88;5097395;27;20489;-69
2024/02/28 00:06:23;;;;;;;33.28;23.52;;;;;;;4.01;100.00;101905.28;5111216;28;20501;-69
2024/02/28 00:09:13;;;;;;;30.27;21.92;;;;;;;4.00;100.00;101895.56;5084308;28;20100;-69
2024/02/28 00:12:01;;;;;;;34.22;23.75;;;;;;;3.99;100.00;101903.81;5098735;28;20052;-70
2024/02/28 00:14:49;;;;;;;34.50;24.55;;;;;;;3.98;100.00;101899.47;5094669;28;20043;-69
2024/02/28 00:17:40;;;;;;;33.17;23.85;;;;;;;3.98;100.00;101899.47;5103702;28;20042;-69
2024/02/28 00:20:29;;;;;;;33.58;23.20;;;;;;;4.00;100.00;101905.50;5112456;28;20126;-68
2024/02/28 00:23:17;;;;;;;31.52;23.17;;;;;;;4.02;100.00;101903.44;5099121;28;20036;-68
2024/02/28 00:26:05;;;;;;;30.27;22.38;;;;;;;4.04;100.00;101907.63;5095740;28;20426;-68
2024/02/28 00:28:53;;;;;;;35.83;24.58;;;;;;;4.06;100.00;101896.63;5075680;28;20492;-67
2024/02/28 00:31:41;;;;;;;34.40;24.13;;;;;;;4.07;100.00;101900.16;5082384;27;20550;-67
2024/02/28 00:34:29;;;;;;;33.65;24.45;;;;;;;4.07;100.00;101898.28;5118198;27;20049;-68
2024/02/28 00:37:17;;;;;;;33.42;24.02;;;;;;;4.07;100.00;101894.78;5088159;28;20047;-68
2024/02/28 00:40:06;;;;;;;35.83;24.08;;;;;;;4.07;100.00;101895.59;5112644;28;20047;-68
2024/02/28 00:42:54;;;;;;;32.40;23.63;;;;;;;4.05;100.00;101892.25;5091101;27;20133;-68
2024/02/28 00:45:43;;;;;;;33.30;24.13;;;;;;;4.04;100.00;101890.56;5108533;28;20032;-67
2024/02/28 00:48:31;;;;;;;31.95;23.08;;;;;;;4.04;100.00;101891.44;5109584;28;20047;-67
2024/02/28 00:51:19;;;;;;;31.70;23.08;;;;;;;4.05;100.00;101892.25;5079907;28;20032;-68
2024/02/28 00:54:08;;;;;;;33.17;24.60;;;;;;;4.03;100.00;101895.16;5111382;28;20044;-68
2024/02/28 00:56:56;;;;;;;36.90;25.40;;;;;;;4.00;100.00;101900.13;5113058;28;20372;-68
2024/02/28 00:59:44;;;;;;;34.65;25.25;;;;;;;3.99;100.00;101901.13;5083265;28;20087;-69
2024/02/28 01:02:33;;;;;;;34.08;25.02;;;;;;;3.96;100.00;101896.13;5096365;28;20052;-68
2024/02/28 01:05:21;;;;;;;30.50;23.45;;;;;;;3.95;100.00;101902.56;5112235;28;20247;-68
2024/02/28 01:08:08;;;;;;;35.28;25.10;;;;;;;3.93;100.00;101900.06;5112771;28;20062;-68
2024/02/28 01:10:57;;;;;;;33.88;23.63;;;;;;;3.93;100.00;101893.84;5130244;28;20112;-64
2024/02/28 01:13:45;;;;;;;30.58;22.83;;;;;;;3.92;100.00;101897.56;5118849;28;20040;-67
2024/02/28 01:16:33;;;;;;;35.25;23.83;;;;;;;3.91;100.00;101893.22;5107528;28;20051;-67
2024/02/28 01:19:21;;;;;;;34.38;24.77;;;;;;;3.89;100.00;101882.59;5116815;28;20058;-61
2024/02/28 01:22:09;;;;;;;31.48;22.85;;;;;;;3.88;100.00;101880.97;5116634;28;20039;-61
2024/02/28 01:24:57;;;;;;;30.63;23.38;;;;;;;3.88;100.00;101877.44;5102221;28;20043;-67
2024/02/28 01:27:45;;;;;;;30.85;22.45;;;;;;;3.87;100.00;101871.19;5087153;28;20051;-68
2024/02/28 01:30:33;;;;;;;32.33;22.70;;;;;;;3.90;100.00;101873.50;5112360;28;20047;-69
2024/02/28 01:33:21;;;;;;;29.27;22.02;;;;;;;3.91;100.00;101875.16;5101081;28;20052;-68
2024/02/28 01:36:10;;;;;;;31.23;22.65;;;;;;;3.90;100.00;101878.91;5084075;28;20044;-68
2024/02/28 01:38:58;;;;;;;31.27;23.08;;;;;;;3.89;100.00;101888.00;5095188;28;20140;-67
2024/02/28 01:41:57;;;;;;;29.73;22.63;;;;;;;3.83;100.00;101889.63;5107077;27;20035;-68
2024/02/28 01:44:47;;;;;;;29.50;22.13;;;;;;;3.81;100.00;101894.38;5086776;28;20040;-68
2024/02/28 01:47:35;;;;;;;29.95;21.67;;;;;;;3.82;100.00;101890.69;5087706;28;20140;-68
2024/02/28 01:50:23;;;;;;;30.65;21.05;;;;;;;3.83;100.00;101894.19;5115611;28;20101;-69
2024/02/28 01:53:13;;;;;;;29.02;21.20;;;;;;;3.82;100.00;101906.00;5100306;28;20047;-69
2024/02/28 01:56:02;;;;;;;28.10;21.15;;;;;;;3.82;100.00;101908.69;5100923;28;20047;-68
2024/02/28 01:58:50;;;;;;;29.65;21.13;;;;;;;3.81;100.00;101897.09;5080863;28;20512;-69
2024/02/28 02:01:38;;;;;;;28.65;20.67;;;;;;;3.81;100.00;101902.47;5116742;27;20047;-68
2024/02/28 02:04:26;;;;;;;29.80;21.33;;;;;;;3.84;100.00;101895.84;5091454;28;20043;-68
2024/02/28 02:07:14;;;;;;;27.55;19.25;;;;;;;3.89;100.00;101895.25;5086638;28;20043;-68
2024/02/28 02:10:02;;;;;;;26.88;20.23;;;;;;;3.90;100.00;101899.66;5099898;28;20560;-69
2024/02/28 02:12:50;;;;;;;28.50;20.73;;;;;;;3.90;100.00;101899.66;5092588;28;20093;-68
2024/02/28 02:15:38;;;;;;;27.90;20.13;;;;;;;3.88;100.00;101896.31;5080982;28;20476;-69
2024/02/28 02:18:26;;;;;;;27.25;19.80;;;;;;;3.86;100.00;101898.38;5079138;28;20395;-69
2024/02/28 02:21:18;;;;;;;26.42;19.67;;;;;;;3.83;100.00;101897.72;5101248;27;20079;-68
2024/02/28 02:24:06;;;;;;;27.85;20.02;;;;;;;3.82;100.00;101892.50;5093849;28;20053;-68
2024/02/28 02:27:01;;;;;;;24.80;18.25;;;;;;;3.82;100.00;101887.97;5066643;28;20028;-68
2024/02/28 02:29:49;;;;;;;27.33;18.50;;;;;;;3.83;100.00;101888.81;5080054;28;20042;-68
2024/02/28 02:32:37;;;;;;;24.83;18.52;;;;;;;3.81;100.00;101888.16;5078602;28;20048;-68
2024/02/28 02:35:25;;;;;;;25.48;18.33;;;;;;;3.80;100.00;101890.03;5094788;28;20140;-68
2024/02/28 02:38:13;;;;;;;26.23;18.80;;;;;;;3.80;100.00;101883.78;5109046;28;20123;-68
2024/02/28 02:41:01;;;;;;;25.73;19.52;;;;;;;3.79;100.00;101904.53;5100458;28;20043;-68
2024/02/28 02:43:49;;;;;;;23.58;18.13;;;;;;;3.79;100.00;101911.78;5097651;28;20050;-68
2024/02/28 02:46:37;;;;;;;23.10;16.60;;;;;;;3.80;100.00;101905.34;5113938;28;20044;-68
2024/02/28 02:49:25;;;;;;;24.43;17.17;;;;;;;3.80;100.00;101903.50;5101202;28;20051;-68
2024/02/28 02:52:13;;;;;;;25.40;18.50;;;;;;;3.82;100.00;101898.75;5105883;28;20500;-68
2024/02/28 02:55:01;;;;;;;23.63;17.98;;;;;;;3.80;100.00;101906.22;5097541;28;20043;-68
2024/02/28 02:57:49;;;;;;;24.05;17.70;;;;;;;3.79;100.00;101909.91;5113945;28;20043;-69
2024/02/28 03:00:37;;;;;;;26.90;18.25;;;;;;;3.77;100.00;101905.75;5115273;27;20041;-68
2024/02/28 03:03:25;;;;;;;28.23;18.83;;;;;;;3.76;100.00;101902.22;5113354;28;20054;-68
2024/02/28 03:06:13;;;;;;;25.90;19.20;;;;;;;3.75;100.00;101910.50;5101164;28;20055;-68
2024/02/28 03:09:03;;;;;;;25.42;18.48;;;;;;;3.74;100.00;101906.97;5085061;28;20036;-68
2024/02/28 03:11:51;;;;;;;23.98;17.77;;;;;;;3.74;100.00;101909.69;5113884;28;20071;-68
2024/02/28 03:14:39;;;;;;;24.27;17.65;;;;;;;3.74;100.00;101900.75;5115520;27;20035;-68
2024/02/28 03:17:27;;;;;;;23.42;17.63;;;;;;;3.74;100.00;101909.69;5101170;27;21781;-68
2024/02/28 03:20:15;;;;;;;22.42;16.73;;;;;;;3.75;100.00;101902.41;5113633;28;20504;-68
2024/02/28 03:23:03;;;;;;;23.63;17.80;;;;;;;3.75;100.00;101905.97;5113190;28;20036;-68
2024/02/28 03:25:51;;;;;;;24.30;18.00;;;;;;;3.72;100.00;101909.03;5114196;28;20056;-68
2024/02/28 03:28:39;;;;;;;25.77;18.13;;;;;;;3.70;100.00;101916.47;5114086;28;20489;-68
2024/02/28 03:31:27;;;;;;;25.70;18.05;;;;;;;3.66;100.00;101909.00;5112680;28;20049;-67
2024/02/28 03:34:15;;;;;;;23.98;18.20;;;;;;;3.58;100.00;101909.94;5114008;28;20058;-68
2024/02/28 03:37:03;;;;;;;23.20;17.42;;;;;;;3.53;100.00;101915.09;5098394;28;20039;-68
2024/02/28 03:39:51;;;;;;;24.55;18.40;;;;;;;3.48;100.00;101912.97;5097194;28;20039;-68
2024/02/28 03:42:39;;;;;;;22.42;16.98;;;;;;;3.48;100.00;101907.59;5113075;28;20047;-69
2024/02/28 03:45:31;;;;;;;24.63;17.65;;;;;;;3.48;100.00;101906.78;5084936;28;20054;-68
2024/02/28 03:48:19;;;;;;;23.63;16.85;;;;;;;3.52;100.00;101911.56;5111594;28;20039;-69
2024/02/28 03:51:07;;;;;;;20.88;15.55;;;;;;;3.52;100.00;101908.06;5079294;27;20125;-68
2024/02/28 03:53:55;;;;;;;23.95;16.42;;;;;;;3.49;100.00;101903.88;5097852;28;20176;-69
2024/02/28 03:56:43;;;;;;;19.98;14.85;;;;;;;3.47;100.00;101900.56;5097171;28;20040;-68
2024/02/28 03:59:31;;;;;;;20.58;15.07;;;;;;;3.48;100.00;101901.38;5091813;28;20135;-69
2024/02/28 04:02:19;;;;;;;20.55;15.38;;;;;;;3.47;100.00;101903.25;5064624;28;20046;-68
2024/02/28 04:05:08;;;;;;;20.23;14.85;;;;;;;3.50;100.00;101905.53;5109633;27;20596;-68
2024/02/28 04:07:56;;;;;;;18.65;14.32;;;;;;;3.50;100.00;101907.41;5099205;28;20540;-68
2024/02/28 04:10:44;;;;;;;19.23;14.02;;;;;;;3.51;100.00;101911.75;5064049;28;20054;-68
2024/02/28 04:13:32;;;;;;;21.02;14.73;;;;;;;3.49;100.00;101897.66;5093863;28;20040;-69
2024/02/28 04:16:20;;;;;;;19.52;14.27;;;;;;;3.49;100.00;101897.66;5087250;27;20130;-70
2024/02/28 04:19:08;;;;;;;23.45;15.45;;;;;;;3.47;100.00;101903.25;5112394;28;20394;-69
2024/02/28 04:21:55;;;;;;;18.80;14.07;;;;;;;3.46;100.00;101906.13;5097519;28;20043;-69
2024/02/28 04:24:44;;;;;;;18.95;13.98;;;;;;;3.46;100.00;101919.59;5089541;28;20041;-69
2024/02/28 04:27:32;;;;;;;19.95;13.40;;;;;;;3.47;100.00;101918.59;5092380;28;20043;-69
2024/02/28 04:30:20;;;;;;;21.25;15.30;;;;;;;3.45;100.00;101917.94;5128913;27;20479;-69
2024/02/28 04:33:08;;;;;;;20.13;15.30;;;;;;;3.46;100.00;101919.59;5134038;27;20062;-70
2024/02/28 04:35:56;;;;;;;21.00;15.80;;;;;;;3.46;100.00;101922.28;5081622;28;20050;-68
2024/02/28 04:38:44;;;;;;;21.75;15.80;;;;;;;3.48;100.00;101922.94;5111855;28;20051;-69
2024/02/28 04:41:32;;;;;;;22.35;17.13;;;;;;;3.50;100.00;101923.56;5103155;27;20427;-68
2024/02/28 04:44:19;;;;;;;22.38;16.27;;;;;;;3.51;100.00;101917.16;5124327;27;20039;-69
2024/02/28 04:47:07;;;;;;;20.88;15.75;;;;;;;3.49;100.00;101919.19;5112502;28;20122;-68
2024/02/28 04:49:55;;;;;;;22.52;16.20;;;;;;;3.43;100.00;101920.81;5085207;28;20556;-69
2024/02/28 04:52:43;;;;;;;23.08;17.13;;;;;;;3.39;100.00;101920.38;5112049;28;20050;-69
2024/02/28 04:55:31;;;;;;;21.48;16.42;;;;;;;3.34;100.00;101928.22;5094734;28;20116;-69
2024/02/28 04:58:19;;;;;;;22.42;17.40;;;;;;;3.33;100.00;101923.84;5098230;28;20126;-69
2024/02/28 05:01:07;;;;;;;29.17;18.75;;;;;;;3.30;100.00;101926.94;5098266;28;20047;-68
2024/02/28 05:03:55;;;;;;;23.63;18.33;;;;;;;3.31;100.00;101938.53;5096313;28;20116;-68
2024/02/28 05:06:44;;;;;;;21.70;15.35;;;;;;;3.30;100.00;101940.38;5116642;27;20394;-68
2024/02/28 05:09:32;;;;;;;25.42;19.13;;;;;;;3.30;100.00;101951.16;5123374;27;20061;-68
2024/02/28 05:12:20;;;;;;;25.33;19.13;;;;;;;3.31;100.00;101950.13;5118768;28;20495;-68
2024/02/28 05:15:08;;;;;;;29.73;19.48;;;;;;;3.29;100.00;101946.78;5102156;28;20149;-68
2024/02/28 05:17:56;;;;;;;26.08;20.33;;;;;;;3.26;100.00;101957.94;5101871;27;20172;-68
2024/02/28 05:20:44;;;;;;;27.75;20.15;;;;;;;3.23;100.00;101949.44;5098541;28;20503;-68
2024/02/28 05:23:35;;;;;;;25.88;18.30;;;;;;;3.23;100.00;101955.66;5099996;28;20503;-67
2024/02/28 05:26:23;;;;;;;26.58;19.75;;;;;;;3.25;100.00;101956.31;5114092;28;20046;-68
2024/02/28 05:29:11;;;;;;;28.42;19.63;;;;;;;3.25;100.00;101961.69;5121076;27;20039;-68
2024/02/28 05:31:59;;;;;;;27.98;19.90;;;;;;;3.25;100.00;101961.69;5090230;28;20052;-65
2024/02/28 05:34:47;;;;;;;29.25;20.58;;;;;;;3.24;100.00;101965.38;5108748;28;20039;-68
2024/02/28 05:37:34;;;;;;;25.00;19.58;;;;;;;3.21;100.00;101965.78;5121726;28;20063;-67
2024/02/28 05:40:22;;;;;;;25.38;19.60;;;;;;;3.18;100.00;101961.59;5134245;28;20035;-68
2024/02/28 05:43:10;;;;;;;26.83;19.50;;;;;;;3.17;100.00;101967.16;5137223;27;20070;-65
2024/02/28 05:45:58;;;;;;;28.13;19.85;;;;;;;3.14;100.00;101960.31;5103574;28;20042;-66
2024/02/28 05:48:47;;;;;;;25.13;19.42;;;;;;;3.14;100.00;101964.88;5084001;28;20042;-68
2024/02/28 05:51:36;;;;;;;29.95;20.38;;;;;;;3.13;100.00;101968.59;5083382;28;20051;-68
2024/02/28 05:54:24;;;;;;;28.15;18.70;;;;;;;3.14;100.00;101970.25;5105950;27;20038;-69
2024/02/28 05:57:12;;;;;;;28.13;20.85;;;;;;;3.14;100.00;101981.03;5118907;28;20120;-69
2024/02/28 06:00:00;;;;;;;28.73;20.25;;;;;;;3.13;100.00;101968.59;5117415;28;20084;-68
2024/02/28 06:02:58;;;;;;;28.70;20.52;;;;;;;3.08;100.00;101971.00;5105596;28;20189;-68
2024/02/28 06:05:46;;;;;;;29.02;21.52;;;;;;;3.06;100.00;101973.06;5102963;28;20042;-67
2024/02/28 06:08:37;;;;;;;29.60;22.45;;;;;;;2.99;100.00;101965.75;5073162;28;20040;-69
2024/02/28 06:11:25;;;;;;;32.92;23.08;;;;;;;2.89;100.00;101961.69;5100617;28;20043;-68
2024/02/28 06:14:14;;;;;;;34.13;23.05;;;;;;;2.84;100.00;101975.72;5116361;28;20054;-68
2024/02/28 06:17:04;;;;;;;31.42;21.08;;;;;;;2.85;100.00;101972.00;5102388;28;20538;-68
2024/02/28 06:19:51;;;;;;;27.73;19.25;;;;;;;2.91;100.00;101965.88;5114600;27;20038;-68
2024/02/28 06:22:40;;;;;;;29.13;20.85;;;;;;;2.88;100.00;101977.00;5114516;28;20118;-68
2024/02/28 06:25:28;;;;;;;28.20;21.20;;;;;;;2.90;100.00;101972.25;5069322;28;20047;-68
2024/02/28 06:28:16;;;;;;;30.17;21.88;;;;;;;2.93;100.00;101979.13;5110332;28;20031;-68
2024/02/28 06:31:04;;;;;;;28.95;19.42;;;;;;;2.94;100.00;101987.00;5120519;28;20035;-69
2024/02/28 06:33:52;;;;;;;29.38;20.88;;;;;;;2.94;100.00;101981.63;5120822;27;20102;-68
2024/02/28 06:36:42;;;;;;;23.65;15.55;;;;;;;2.94;100.00;101987.00;5080322;28;20040;-68
2024/02/28 06:39:30;;;;;;;31.35;22.55;;;;;;;2.81;100.00;101989.53;5079588;28;20039;-69
2024/02/28 06:42:18;;;;;;;35.78;23.42;;;;;;;2.73;100.00;101995.03;5066107;28;20043;-68
2024/02/28 06:45:09;;;;;;;35.00;23.50;;;;;;;2.73;100.00;102003.94;4479815;27;10001846;-70
2024/02/28 06:47:57;;;;;;;35.45;24.27;;;;;;;2.73;100.00;102006.63;5090125;28;20197;-69
2024/02/28 06:50:45;;;;;;;38.47;24.20;;;;;;;2.73;100.00;102011.16;5077232;28;20044;-68
2024/02/28 06:53:33;;;;;;;33.47;21.45;;;;;;;2.78;100.00;102008.75;5077109;28;20475;-69
2024/02/28 06:56:21;;;;;;;30.67;19.88;;;;;;;2.87;100.00;102010.31;5080727;28;20048;-70
2024/02/28 06:59:09;;;;;;;32.67;21.42;;;;;;;2.89;100.00;102012.84;5097593;28;20043;-69
2024/02/28 07:01:58;;;;;;;25.20;15.88;;;;;;;2.89;100.00;102019.06;5085628;28;20036;-68
2024/02/28 07:04:46;;;;;;;28.80;18.35;;;;;;;2.94;100.00;102022.00;5080635;28;20051;-68
2024/02/28 07:07:34;;;;;;;32.97;21.15;;;;;;;2.89;100.00;102027.13;5079199;28;20135;-68
2024/02/28 07:10:23;;;;;;;30.95;20.77;;;;;;;2.88;100.00;102030.81;5085420;28;20042;-69
2024/02/28 07:13:11;;;;;;;35.75;21.23;;;;;;;2.92;100.00;102037.50;5094334;28;20036;-69
2024/02/28 07:15:59;;;;;;;32.25;21.20;;;;;;;2.95;100.00;102036.31;5079802;28;20132;-69
2024/02/28 07:18:47;;;;;;;32.88;20.30;;;;;;;3.00;100.00;102036.56;5093708;28;20063;-69
2024/02/28 07:21:37;;;;;;;32.22;20.58;;;;;;;3.04;100.00;102050.50;5079321;28;20115;-69
2024/02/28 07:24:25;;;;;;;32.17;20.13;;;;;;;3.07;100.00;102044.75;5066364;28;20051;-68
2024/02/28 07:27:13;;;;;;;25.92;18.38;;;;;;;3.11;100.00;102046.03;5094543;28;20527;-68
2024/02/28 07:30:03;;;;;;;27.80;17.58;;;;;;;3.14;100.00;102046.47;5074404;28;20032;-68
2024/02/28 07:32:51;;;;;;;30.17;20.38;;;;;;;3.16;100.00;102038.22;5083536;28;20164;-69
2024/02/28 07:35:53;;;;;;;29.30;19.50;;;;;;;3.17;100.00;102043.41;5085039;28;20035;-69
2024/02/28 07:38:44;;;;;;;31.08;21.02;;;;;;;3.13;100.00;102046.69;5114033;28;20046;-69
2024/02/28 07:41:32;;;;;;;34.83;22.60;;;;;;;3.01;100.00;102040.94;5112694;28;20052;-69
2024/02/28 07:44:20;;;;;;;31.02;21.83;;;;;;;2.97;100.00;102045.84;5099143;28;20052;-69
2024/02/28 07:47:08;;;;;;;32.53;21.70;;;;;;;2.97;100.00;102048.56;5085210;28;20534;-69
2024/02/28 07:49:56;;;;;;;30.58;21.58;;;;;;;3.01;100.00;102050.84;5098621;28;20062;-68
2024/02/28 07:52:44;;;;;;;30.02;21.15;;;;;;;2.98;100.00;102058.31;5097457;28;20336;-68
2024/02/28 07:55:32;;;;;;;33.25;22.80;;;;;;;2.97;100.00;102071.94;5114470;28;20449;-68
2024/02/28 07:58:21;;;;;;;28.45;21.60;;;;;;;2.98;100.00;102071.78;5085774;28;20047;-68
2024/02/28 08:01:09;;;;;;;25.08;18.33;;;;;;;3.08;100.00;102076.88;5119303;27;20035;-67
2024/02/28 08:03:57;;;;;;;25.85;18.50;;;;;;;3.16;100.00;102081.31;5118966;27;20054;-67
2024/02/28 08:06:45;;;;;;;25.08;16.25;;;;;;;3.24;100.00;102083.88;5127976;27;20558;-67
2024/02/28 08:09:34;;;;;;;34.70;17.30;;;;;;;3.31;100.00;102086.66;5134521;27;20054;-67
2024/02/28 08:12:21;;;;;;;29.13;18.65;;;;;;;3.34;100.00;102084.44;5131286;27;20087;-65
2024/02/28 08:15:10;;;;;;;27.77;18.38;;;;;;;3.38;100.00;102088.41;5133397;27;20047;-66
2024/02/28 08:17:58;;;;;;;28.88;19.33;;;;;;;3.40;100.00;102096.31;5119061;27;20505;-69
2024/02/28 08:20:46;;;;;;;32.22;19.63;;;;;;;3.43;100.00;102090.53;5118380;27;20043;-69
2024/02/28 08:23:34;;;;;;;24.52;16.70;;;;;;;3.45;100.00;102090.38;5080778;28;20101;-68
2024/02/28 08:26:23;;;;;;;27.23;19.17;;;;;;;3.51;100.00;102095.84;5107746;28;20044;-68
2024/02/28 08:29:10;;;;;;;25.67;18.60;;;;;;;3.54;100.00;102102.72;5084094;28;20043;-68
2024/02/28 08:31:58;;;;;;;30.83;17.35;;;;;;;3.61;100.00;102106.31;5096919;28;20056;-67
2024/02/28 08:34:46;;;;;;;31.48;16.13;;;;;;;3.67;100.00;102102.84;5101229;28;20039;-68
2024/02/28 08:37:34;;;;;;;25.08;17.45;;;;;;;3.71;100.00;102101.44;5111592;28;20094;-69
2024/02/28 08:40:22;;;;;;;24.63;17.98;;;;;;;3.71;100.00;102106.84;5112794;28;20051;-69
2024/02/28 08:43:10;;;;;;;22.98;16.30;;;;;;;3.71;100.00;102104.13;5113173;27;20051;-70
2024/02/28 08:45:58;;;;;;;25.10;17.08;;;;;;;3.74;100.00;102116.41;5112327;28;20048;-69
2024/02/28 08:48:46;;;;;;;32.30;14.60;;;;;;;3.80;100.00;102119.19;5097790;28;20502;-70
2024/02/28 08:51:34;;;;;;;26.58;16.98;;;;;;;3.83;100.00;102116.09;5082807;28;20078;-70
2024/02/28 08:54:22;;;;;;;27.48;16.55;;;;;;;3.94;100.00;102112.03;5107227;27;20100;-70
2024/02/28 08:57:11;;;;;;;26.58;17.38;;;;;;;3.95;100.00;102107.50;5118851;27;20051;-68
2024/02/28 08:59:59;;;;;;;25.30;17.25;;;;;;;3.94;100.00;102100.41;5064090;28;20067;-69
2024/02/28 09:02:47;;;;;;;32.17;19.55;;;;;;;3.96;100.00;102103.75;5060865;28;20111;-69
2024/02/28 09:05:35;;;;;;;28.17;19.75;;;;;;;3.95;100.00;102104.81;5098534;28;20050;-68
2024/02/28 09:08:23;;;;;;;20.50;14.32;;;;;;;3.97;100.00;102105.41;5132154;28;20062;-68
2024/02/28 09:11:12;;;;;;;25.48;14.05;;;;;;;4.05;100.00;102108.84;5131784;28;20043;-69
2024/02/28 09:14:00;;;;;;;24.65;16.60;;;;;;;4.08;100.00;102112.19;5117322;28;20054;-68
2024/02/28 09:16:48;;;;;;;24.30;15.38;;;;;;;4.05;100.00;102100.75;5077340;28;20083;-68
2024/02/28 09:19:36;;;;;;;26.02;17.25;;;;;;;4.09;100.00;102112.00;5091873;28;20054;-69
2024/02/28 09:22:25;;;;;;;25.73;20.85;;;;;;;4.05;100.00;102108.00;5108509;28;20051;-69
2024/02/28 09:25:15;;;;;;;28.33;21.55;;;;;;;4.01;100.00;102101.31;5112476;28;20039;-70
2024/02/28 09:28:03;;;;;;;24.30;20.52;;;;;;;4.05;100.00;102094.53;5098354;28;20077;-69
2024/02/28 09:30:51;;;;;;;26.13;20.30;;;;;;;4.07;100.00;102089.78;5112493;28;20059;-70
2024/02/28 09:33:40;;;;;;;26.90;17.42;;;;;;;4.13;100.00;102096.25;5077088;28;20415;-69
2024/02/28 09:36:29;;;;;;;30.38;16.05;;;;;;;4.36;100.00;102090.66;5093370;28;20050;-69
2024/02/28 09:39:17;;;;;;;26.88;16.88;;;;;;;4.39;100.00;102092.94;5131489;28;20043;-68
2024/02/28 09:42:06;;;;;;;26.08;17.75;;;;;;;4.44;100.00;102090.50;5117325;28;20047;-70
2024/02/28 09:44:55;;;;;;;27.63;16.67;;;;;;;4.45;100.00;102090.31;5132429;28;20420;-69
2024/02/28 09:47:43;;;;;;;23.70;15.82;;;;;;;4.47;100.00;102095.50;5104902;28;20125;-70
2024/02/28 09:50:31;;;;;;;24.13;16.77;;;;;;;4.49;100.00;102093.44;5119903;28;20415;-69
2024/02/28 09:53:19;;;;;;;21.98;14.45;;;;;;;4.55;100.00;102092.66;5120621;28;20050;-66
2024/02/28 09:56:07;;;;;;;21.95;15.40;;;;;;;4.66;100.00;102097.50;5120029;28;20023;-65
2024/02/28 09:58:58;;;;;;;21.88;14.82;;;;;;;4.67;100.00;102090.25;5133098;28;20431;-68
2024/02/28 10:01:57;;;;;;;23.15;13.48;;;;;;;4.70;100.00;102100.66;5117845;28;20047;-67
2024/02/28 10:04:45;;;;;;;22.08;14.02;;;;;;;4.72;100.00;102100.47;5129824;27;20430;-59
2024/02/28 10:07:33;;;;;;;23.00;12.30;;;;;;;4.74;100.00;102098.38;5137054;27;20051;-65
2024/02/28 10:10:23;;;;;;;22.25;15.40;;;;;;;4.72;100.00;102104.00;5109652;28;20043;-69
2024/02/28 10:13:11;;;;;;;21.65;13.93;;;;;;;4.75;100.00;102097.34;5089288;28;20415;-69
2024/02/28 10:15:59;;;;;;;20.85;13.52;;;;;;;4.78;100.00;102102.34;5101831;28;20044;-70
2024/02/28 10:18:48;;;;;;;21.48;15.55;;;;;;;4.81;100.00;102107.34;5100505;28;20040;-70
2024/02/28 10:21:36;;;;;;;21.40;15.70;;;;;;;4.80;100.00;102097.59;5100210;28;20044;-69
2024/02/28 10:24:25;;;;;;;23.77;13.57;;;;;;;4.84;100.00;102094.31;5100644;28;20059;-69
2024/02/28 10:27:16;;;;;;;22.45;11.65;;;;;;;4.91;100.00;102094.34;5100822;28;20048;-70
2024/02/28 10:30:05;;;;;;;27.83;20.15;;;;;;;4.89;100.00;102099.09;5100484;28;20040;-69
2024/02/28 10:32:53;;;;;;;28.35;20.50;;;;;;;4.85;100.00;102103.22;5086013;28;20071;-70
2024/02/28 10:35:42;;;;;;;30.90;21.05;;;;;;;4.85;100.00;102101.34;5100608;28;20043;-69
2024/02/28 10:38:33;;;;;;;27.40;16.55;;;;;;;4.88;100.00;102094.72;5116638;28;20047;-68
2024/02/28 10:41:21;;;;;;;25.10;16.75;;;;;;;4.97;100.00;102096.25;5087966;28;20044;-70
2024/02/28 10:44:11;;;;;;;24.67;16.83;;;;;;;5.00;100.00;102090.44;5102095;27;20644;-70
2024/02/28 10:47:02;;;;;;;25.73;15.88;;;;;;;5.14;100.00;102088.63;5119714;27;20082;-69
2024/02/28 10:49:50;;;;;;;24.90;13.80;;;;;;;5.25;100.00;102098.06;5106249;27;20047;-70
2024/02/28 10:52:46;;;;;;;24.33;14.73;;;;;;;5.30;100.00;102092.88;5119516;27;20080;-69
2024/02/28 10:55:37;;;;;;;23.15;12.70;;;;;;;5.34;100.00;102086.88;5113683;27;20050;-70
2024/02/28 10:58:26;;;;;;;22.15;13.52;;;;;;;5.37;100.00;102080.22;5105372;27;20426;-70
2024/02/28 11:01:14;;;;;;;21.13;13.02;;;;;;;5.37;100.00;102088.34;5086159;28;20611;-67
2024/02/28 11:04:04;;;;;;;27.00;18.30;;;;;;;5.34;100.00;102080.63;5083569;28;20050;-69
2024/02/28 11:06:55;;;;;;;19.25;11.80;;;;;;;5.40;100.00;102090.63;5099236;28;20054;-68
2024/02/28 11:09:46;;;;;;;23.20;13.00;;;;;;;5.52;100.00;102083.59;5099180;28;20140;-68
2024/02/28 11:12:35;;;;;;;22.55;13.38;;;;;;;5.47;100.00;102086.06;5086349;28;20051;-70
2024/02/28 11:15:27;;;;;;;21.15;14.20;;;;;;;5.40;100.00;102074.41;5114281;28;20090;-67
2024/02/28 11:18:15;;;;;;;21.27;11.63;;;;;;;5.47;100.00;102086.06;5119860;27;20035;-69
2024/02/28 11:21:04;;;;;;;21.33;12.05;;;;;;;5.61;100.00;102075.31;5119194;27;20074;-69
2024/02/28 11:24:01;;;;;;;22.00;13.57;;;;;;;5.62;100.00;102066.16;5106387;27;20411;-69
2024/02/28 11:26:50;;;;;;;21.92;14.10;;;;;;;5.56;100.00;102067.81;5105483;27;20055;-69
2024/02/28 11:29:38;;;;;;;23.75;13.48;;;;;;;5.55;100.00;102064.25;5114076;28;20168;-69
2024/02/28 11:32:26;;;;;;;27.65;16.70;;;;;;;5.58;100.00;102081.09;5079662;28;20400;-70
2024/02/28 11:35:15;;;;;;;28.40;15.77;;;;;;;5.64;100.00;102074.91;5079512;28;20052;-69
2024/02/28 11:38:06;;;;;;;19.90;13.77;;;;;;;5.66;100.00;102070.13;5065118;28;20449;-68
2024/02/28 11:40:55;;;;;;;20.45;12.77;;;;;;;5.76;100.00;102067.84;5079305;28;20359;-68
2024/02/28 11:43:43;;;;;;;25.90;15.23;;;;;;;5.86;100.00;102052.03;5108115;28;20509;-69
2024/02/28 11:46:42;;;;;;;;;;;;;;;5.83;100.00;102057.03;5099671;28;20200;-69
2024/02/28 11:49:33;;;;;;;22.75;14.52;;;;;;;5.91;100.00;102046.84;5098268;28;20010;-69
2024/02/28 11:52:21;;;;;;;20.10;14.82;;;;;;;5.89;100.00;102042.69;5097770;28;20081;-69
2024/02/28 11:55:09;;;;;;;22.52;12.88;;;;;;;5.95;100.00;102042.72;5084628;28;20083;-70
2024/02/28 11:57:57;;;;;;;22.35;14.20;;;;;;;5.95;100.00;102034.59;5099341;28;20459;-70
2024/02/28 12:00:49;;;;;;;21.48;13.32;;;;;;;6.01;100.00;102024.00;5084341;28;20126;-69
2024/02/28 12:03:46;;;;;;;25.27;14.02;;;;;;;6.10;100.00;102030.88;5114171;28;20131;-69
2024/02/28 12:06:41;;;;;;;23.92;14.18;;;;;;;6.13;100.00;102025.88;5114078;28;20047;-69
2024/02/28 12:09:31;;;;;;;23.80;14.53;;;;;;;6.15;100.00;102033.78;5092881;28;20056;-68
2024/02/28 12:12:29;;;;;;;20.42;11.05;;;;;;;6.30;100.00;102025.44;5079582;28;20055;-69
2024/02/28 12:15:17;;;;;;;23.67;16.35;;;;;;;6.17;100.00;102024.41;5064723;28;20058;-68
2024/02/28 12:18:12;;;;;;;26.05;17.63;;;;;;;6.14;100.00;102015.88;5087340;28;20124;-68
2024/02/28 12:21:00;;;;;;;23.60;18.00;;;;;;;6.16;100.00;102014.63;5097746;28;20048;-69
2024/02/28 12:23:49;;;;;;;21.83;13.70;;;;;;;6.17;100.00;102012.75;5093528;28;20535;-68
2024/02/28 12:26:38;;;;;;;23.00;13.18;;;;;;;6.29;100.00;102011.06;5079410;28;20086;-68
2024/02/28 12:29:26;;;;;;;21.38;10.98;;;;;;;6.34;100.00;102016.69;5064484;28;20484;-68
2024/02/28 12:32:16;;;;;;;22.15;13.52;;;;;;;6.38;100.00;102007.13;5084137;27;20480;-68
2024/02/28 12:35:05;;;;;;;21.30;12.30;;;;;;;6.44;100.00;102007.31;5085302;28;20475;-68
2024/02/28 12:37:53;;;;;;;23.23;11.93;;;;;;;6.41;100.00;102011.28;5112141;28;20047;-68
2024/02/28 12:40:42;;;;;;;22.92;12.30;;;;;;;6.47;100.00;102009.59;5098640;28;20044;-69
2024/02/28 12:43:31;;;;;;;25.13;12.27;;;;;;;6.50;100.00;102009.19;5097694;28;20147;-69
2024/02/28 12:46:19;;;;;;;22.67;13.05;;;;;;;6.52;100.00;102007.94;5101092;27;20047;-69